sensor_id;sensor_type;location;lat;lon;timestamp;pressure;altitude;pressure_sealevel;temperature;humidity
60170;BME280;46042;49.444;6.862;2024-02-21T00:00:18;99630.09;;;6.25;100.00
60170;BME280;46042;49.444;6.862;2024-02-21T00:02:45;99619.59;;;6.26;100.00
60170;BME280;46042;49.444;6.862;2024-02-21T00:05:15;99609.94;;;6.27;100.00
60170;BME280;46042;49.444;6.862;2024-02-21T00:07:45;99612.63;;;6.25;100.00
60170;BME280;46042;49.444;6.862;2024-02-21T00:10:12;99606.56;;;6.23;100.00
60170;BME280;46042;49.444;6.862;2024-02-21T00:12:40;99604.81;;;6.24;100.00
60170;BME280;46042;49.444;6.862;2024-02-21T00:15:07;99607.91;;;6.10;100.00
60170;BME280;46042;49.444;6.862;2024-02-21T00:17:34;99606.47;;;5.98;100.00
60170;BME280;46042;49.444;6.862;2024-02-21T00:20:01;99588.06;;;6.03;100.00
60170;BME280;46042;49.444;6.862;2024-02-21T00:22:28;99582.66;;;6.09;100.00
60170;BME280;46042;49.444;6.862;2024-02-21T00:24:57;99587.94;;;6.06;100.00
60170;BME280;46042;49.444;6.862;2024-02-21T00:27:27;99583.44;;;6.11;100.00
60170;BME280;46042;49.444;6.862;2024-02-21T00:29:54;99584.19;;;6.15;100.00
60170;BME280;46042;49.444;6.862;2024-02-21T00:32:21;99581.38;;;6.21;100.00
60170;BME280;46042;49.444;6.862;2024-02-21T00:34:48;99583.03;;;6.23;100.00
60170;BME280;46042;49.444;6.862;2024-02-21T00:37:15;99583.19;;;6.19;100.00
60170;BME280;46042;49.444;6.862;2024-02-21T00:39:41;99580.66;;;6.16;100.00
60170;BME280;46042;49.444;6.862;2024-02-21T00:42:12;99568.22;;;6.22;100.00
60170;BME280;46042;49.444;6.862;2024-02-21T00:44:39;99561.28;;;6.21;100.00
60170;BME280;46042;49.444;6.862;2024-02-21T00:47:05;99555.34;;;6.18;100.00
60170;BME280;46042;49.444;6.862;2024-02-21T00:49:32;99569.31;;;6.17;100.00
60170;BME280;46042;49.444;6.862;2024-02-21T00:51:59;99556.31;;;6.14;100.00
60170;BME280;46042;49.444;6.862;2024-02-21T00:54:26;99545.16;;;6.08;100.00
60170;BME280;46042;49.444;6.862;2024-02-21T00:57:02;99552.06;;;6.11;100.00
60170;BME280;46042;49.444;6.862;2024-02-21T00:59:29;99548.69;;;6.07;100.00
60170;BME280;46042;49.444;6.862;2024-02-21T01:01:56;99542.44;;;6.11;100.00
60170;BME280;46042;49.444;6.862;2024-02-21T01:04:22;99527.47;;;6.17;100.00
60170;BME280;46042;49.444;6.862;2024-02-21T01:06:51;99527.75;;;6.07;100.00
60170;BME280;46042;49.444;6.862;2024-02-21T01:09:18;99520.81;;;6.06;100.00
60170;BME280;46042;49.444;6.862;2024-02-21T01:11:47;99539.13;;;6.06;100.00
60170;BME280;46042;49.444;6.862;2024-02-21T01:14:14;99540.97;;;6.03;100.00
60170;BME280;46042;49.444;6.862;2024-02-21T01:20:27;99519.88;;;6.09;100.00
60170;BME280;46042;49.444;6.862;2024-02-21T01:22:54;99514.56;;;6.10;100.00
60170;BME280;46042;49.444;6.862;2024-02-21T01:25:21;99519.13;;;6.04;100.00
60170;BME280;46042;49.444;6.862;2024-02-21T01:27:48;99511.94;;;6.10;100.00
60170;BME280;46042;49.444;6.862;2024-02-21T01:30:15;99504.16;;;6.09;100.00
60170;BME280;46042;49.444;6.862;2024-02-21T01:32:42;99492.56;;;6.16;100.00
60170;BME280;46042;49.444;6.862;2024-02-21T01:35:09;99498.50;;;6.21;100.00
60170;BME280;46042;49.444;6.862;2024-02-21T01:37:36;99494.97;;;6.22;100.00
60170;BME280;46042;49.444;6.862;2024-02-21T01:40:03;99489.91;;;6.18;100.00
60170;BME280;46042;49.444;6.862;2024-02-21T01:42:30;99490.25;;;6.07;100.00
60170;BME280;46042;49.444;6.862;2024-02-21T01:44:57;99495.44;;;6.08;100.00
60170;BME280;46042;49.444;6.862;2024-02-21T01:47:23;99496.22;;;6.12;100.00
60170;BME280;46042;49.444;6.862;2024-02-21T01:49:51;99493.47;;;6.15;100.00
60170;BME280;46042;49.444;6.862;2024-02-21T01:52:20;99497.00;;;6.14;100.00
60170;BME280;46042;49.444;6.862;2024-02-21T01:54:47;99481.44;;;6.11;100.00
60170;BME280;46042;49.444;6.862;2024-02-21T01:57:14;99487.31;;;6.18;100.00
60170;BME280;46042;49.444;6.862;2024-02-21T01:59:47;99497.81;;;6.16;100.00
60170;BME280;46042;49.444;6.862;2024-02-21T02:02:15;99490.97;;;6.12;100.00
60170;BME280;46042;49.444;6.862;2024-02-21T02:04:46;99484.72;;;6.16;100.00
60170;BME280;46042;49.444;6.862;2024-02-21T02:07:13;99483.94;;;6.14;100.00
60170;BME280;46042;49.444;6.862;2024-02-21T02:09:43;99483.81;;;6.17;100.00
60170;BME280;46042;49.444;6.862;2024-02-21T02:12:10;99484.72;;;6.16;100.00
60170;BME280;46042;49.444;6.862;2024-02-21T02:14:37;99482.47;;;6.05;100.00
60170;BME280;46042;49.444;6.862;2024-02-21T02:17:05;99477.19;;;6.07;100.00
60170;BME280;46042;49.444;6.862;2024-02-21T02:19:31;99470.56;;;5.95;100.00
60170;BME280;46042;49.444;6.862;2024-02-21T02:22:09;99464.41;;;5.97;100.00
60170;BME280;46042;49.444;6.862;2024-02-21T02:24:43;99460.00;;;5.98;100.00
60170;BME280;46042;49.444;6.862;2024-02-21T02:27:10;99459.06;;;6.01;100.00
60170;BME280;46042;49.444;6.862;2024-02-21T02:29:37;99444.09;;;6.06;100.00
60170;BME280;46042;49.444;6.862;2024-02-21T02:32:04;99444.00;;;6.09;100.00
60170;BME280;46042;49.444;6.862;2024-02-21T02:34:31;99427.22;;;6.15;100.00
60170;BME280;46042;49.444;6.862;2024-02-21T02:36:58;99421.31;;;6.09;100.00
60170;BME280;46042;49.444;6.862;2024-02-21T02:39:24;99415.16;;;6.10;100.00
60170;BME280;46042;49.444;6.862;2024-02-21T02:41:51;99404.78;;;6.09;100.00
60170;BME280;46042;49.444;6.862;2024-02-21T02:44:18;99398.66;;;6.08;100.00
60170;BME280;46042;49.444;6.862;2024-02-21T02:46:45;99403.84;;;6.10;100.00
60170;BME280;46042;49.444;6.862;2024-02-21T02:49:14;99391.63;;;6.10;100.00
60170;BME280;46042;49.444;6.862;2024-02-21T02:51:42;99390.88;;;6.07;100.00
60170;BME280;46042;49.444;6.862;2024-02-21T02:54:10;99395.16;;;6.09;100.00
60170;BME280;46042;49.444;6.862;2024-02-21T02:56:37;99391.84;;;6.04;100.00
60170;BME280;46042;49.444;6.862;2024-02-21T02:59:04;99399.34;;;6.14;100.00
60170;BME280;46042;49.444;6.862;2024-02-21T03:01:34;99397.00;;;6.06;100.00
60170;BME280;46042;49.444;6.862;2024-02-21T03:04:02;99399.63;;;6.06;100.00
60170;BME280;46042;49.444;6.862;2024-02-21T03:06:29;99405.56;;;6.11;100.00
60170;BME280;46042;49.444;6.862;2024-02-21T03:08:58;99412.66;;;6.07;100.00
60170;BME280;46042;49.444;6.862;2024-02-21T03:11:27;99386.66;;;6.03;100.00
60170;BME280;46042;49.444;6.862;2024-02-21T03:13:56;99387.66;;;5.98;100.00
60170;BME280;46042;49.444;6.862;2024-02-21T03:16:23;99393.94;;;5.93;100.00
60170;BME280;46042;49.444;6.862;2024-02-21T03:18:50;99384.34;;;5.93;100.00
60170;BME280;46042;49.444;6.862;2024-02-21T03:21:20;99385.31;;;5.91;100.00
60170;BME280;46042;49.444;6.862;2024-02-21T03:23:47;99385.19;;;5.94;100.00
60170;BME280;46042;49.444;6.862;2024-02-21T03:26:14;99382.72;;;5.89;100.00
60170;BME280;46042;49.444;6.862;2024-02-21T03:28:44;99375.09;;;5.83;100.00
60170;BME280;46042;49.444;6.862;2024-02-21T03:31:15;99362.44;;;5.96;100.00
60170;BME280;46042;49.444;6.862;2024-02-21T03:33:42;99373.03;;;5.93;100.00
60170;BME280;46042;49.444;6.862;2024-02-21T03:36:14;99374.72;;;5.94;100.00
60170;BME280;46042;49.444;6.862;2024-02-21T03:38:42;99374.03;;;5.89;100.00
60170;BME280;46042;49.444;6.862;2024-02-21T03:41:08;99378.47;;;5.87;100.00
60170;BME280;46042;49.444;6.862;2024-02-21T03:43:38;99373.13;;;5.90;100.00
60170;BME280;46042;49.444;6.862;2024-02-21T03:46:06;99375.75;;;5.90;100.00
60170;BME280;46042;49.444;6.862;2024-02-21T03:48:33;99368.84;;;5.87;100.00
60170;BME280;46042;49.444;6.862;2024-02-21T03:51:00;99348.97;;;5.83;100.00
60170;BME280;46042;49.444;6.862;2024-02-21T03:53:27;99342.78;;;5.86;100.00
60170;BME280;46042;49.444;6.862;2024-02-21T03:55:55;99335.63;;;5.91;100.00
60170;BME280;46042;49.444;6.862;2024-02-21T03:58:22;99331.28;;;5.90;100.00
60170;BME280;46042;49.444;6.862;2024-02-21T04:00:49;99331.06;;;5.96;100.00
60170;BME280;46042;49.444;6.862;2024-02-21T04:03:16;99341.06;;;5.84;100.00
60170;BME280;46042;49.444;6.862;2024-02-21T04:05:43;99325.47;;;5.81;100.00
60170;BME280;46042;49.444;6.862;2024-02-21T04:08:10;99323.69;;;5.83;100.00
60170;BME280;46042;49.444;6.862;2024-02-21T04:10:36;99328.06;;;5.81;100.00
60170;BME280;46042;49.444;6.862;2024-02-21T04:13:06;99328.94;;;5.82;100.00
60170;BME280;46042;49.444;6.862;2024-02-21T04:15:33;99310.53;;;5.85;100.00
60170;BME280;46042;49.444;6.862;2024-02-21T04:18:00;99295.63;;;5.87;100.00
60170;BME280;46042;49.444;6.862;2024-02-21T04:20:27;99301.78;;;5.86;100.00
60170;BME280;46042;49.444;6.862;2024-02-21T04:22:54;99294.09;;;5.81;100.00
60170;BME280;46042;49.444;6.862;2024-02-21T04:25:21;99304.63;;;5.80;100.00
60170;BME280;46042;49.444;6.862;2024-02-21T04:27:48;99297.63;;;5.80;100.00
60170;BME280;46042;49.444;6.862;2024-02-21T04:30:15;99310.00;;;5.75;100.00
60170;BME280;46042;49.444;6.862;2024-02-21T04:32:42;99308.03;;;5.82;100.00
60170;BME280;46042;49.444;6.862;2024-02-21T04:35:09;99301.06;;;5.82;100.00
60170;BME280;46042;49.444;6.862;2024-02-21T04:37:36;99303.72;;;5.81;100.00
60170;BME280;46042;49.444;6.862;2024-02-21T04:40:03;99292.50;;;5.77;100.00
60170;BME280;46042;49.444;6.862;2024-02-21T04:42:30;99287.13;;;5.82;100.00
60170;BME280;46042;49.444;6.862;2024-02-21T04:44:57;99278.41;;;5.81;100.00
60170;BME280;46042;49.444;6.862;2024-02-21T04:47:23;99282.84;;;5.79;100.00
60170;BME280;46042;49.444;6.862;2024-02-21T04:49:51;99285.63;;;5.75;100.00
60170;BME280;46042;49.444;6.862;2024-02-21T04:52:18;99286.72;;;5.69;100.00
60170;BME280;46042;49.444;6.862;2024-02-21T04:54:45;99289.97;;;5.76;100.00
60170;BME280;46042;49.444;6.862;2024-02-21T04:57:12;99291.72;;;5.75;100.00
60170;BME280;46042;49.444;6.862;2024-02-21T04:59:44;99282.13;;;5.76;100.00
60170;BME280;46042;49.444;6.862;2024-02-21T05:02:11;99278.59;;;5.77;100.00
60170;BME280;46042;49.444;6.862;2024-02-21T05:08:20;99290.28;;;5.66;100.00
60170;BME280;46042;49.444;6.862;2024-02-21T05:10:50;99293.63;;;5.70;100.00
60170;BME280;46042;49.444;6.862;2024-02-21T05:13:20;99290.13;;;5.71;100.00
60170;BME280;46042;49.444;6.862;2024-02-21T05:15:47;99293.91;;;5.62;100.00
60170;BME280;46042;49.444;6.862;2024-02-21T05:18:17;99294.06;;;5.58;100.00
60170;BME280;46042;49.444;6.862;2024-02-21T05:20:44;99286.09;;;5.61;100.00
60170;BME280;46042;49.444;6.862;2024-02-21T05:23:10;99276.69;;;5.57;100.00
60170;BME280;46042;49.444;6.862;2024-02-21T05:25:37;99274.06;;;5.57;100.00
60170;BME280;46042;49.444;6.862;2024-02-21T05:28:04;99276.38;;;5.66;100.00
60170;BME280;46042;49.444;6.862;2024-02-21T05:30:33;99275.47;;;5.67;100.00
60170;BME280;46042;49.444;6.862;2024-02-21T05:33:06;99260.97;;;5.58;100.00
60170;BME280;46042;49.444;6.862;2024-02-21T05:35:34;99262.81;;;5.54;100.00
60170;BME280;46042;49.444;6.862;2024-02-21T05:38:01;99270.66;;;5.54;100.00
60170;BME280;46042;49.444;6.862;2024-02-21T05:40:28;99260.34;;;5.50;100.00
60170;BME280;46042;49.444;6.862;2024-02-21T05:43:01;99253.28;;;5.53;100.00
60170;BME280;46042;49.444;6.862;2024-02-21T05:45:28;99247.56;;;5.42;100.00
60170;BME280;46042;49.444;6.862;2024-02-21T05:47:55;99251.19;;;5.38;100.00
60170;BME280;46042;49.444;6.862;2024-02-21T05:50:24;99248.63;;;5.36;100.00
60170;BME280;46042;49.444;6.862;2024-02-21T05:52:57;99248.63;;;5.36;100.00
60170;BME280;46042;49.444;6.862;2024-02-21T05:55:24;99252.13;;;5.35;100.00
60170;BME280;46042;49.444;6.862;2024-02-21T05:57:53;99247.81;;;5.34;100.00
60170;BME280;46042;49.444;6.862;2024-02-21T06:00:21;99242.88;;;5.26;100.00
60170;BME280;46042;49.444;6.862;2024-02-21T06:02:48;99234.19;;;5.26;100.00
60170;BME280;46042;49.444;6.862;2024-02-21T06:05:14;99234.19;;;5.26;100.00
60170;BME280;46042;49.444;6.862;2024-02-21T06:07:41;99236.03;;;5.22;100.00
60170;BME280;46042;49.444;6.862;2024-02-21T06:10:11;99224.72;;;5.22;100.00
60170;BME280;46042;49.444;6.862;2024-02-21T06:12:41;99228.22;;;5.22;100.00
60170;BME280;46042;49.444;6.862;2024-02-21T06:15:08;99220.47;;;5.19;100.00
60170;BME280;46042;49.444;6.862;2024-02-21T06:17:35;99225.59;;;5.22;100.00
60170;BME280;46042;49.444;6.862;2024-02-21T06:20:02;99213.59;;;5.17;100.00
60170;BME280;46042;49.444;6.862;2024-02-21T06:22:32;99223.13;;;5.18;100.00
60170;BME280;46042;49.444;6.862;2024-02-21T06:24:59;99222.19;;;5.20;100.00
60170;BME280;46042;49.444;6.862;2024-02-21T06:27:26;99219.72;;;5.16;100.00
60170;BME280;46042;49.444;6.862;2024-02-21T06:29:52;99211.78;;;5.19;100.00
60170;BME280;46042;49.444;6.862;2024-02-21T06:32:19;99219.69;;;5.17;100.00
60170;BME280;46042;49.444;6.862;2024-02-21T06:34:46;99221.31;;;5.20;100.00
60170;BME280;46042;49.444;6.862;2024-02-21T06:37:13;99207.53;;;5.16;100.00
60170;BME280;46042;49.444;6.862;2024-02-21T06:39:39;99207.44;;;5.19;100.00
60170;BME280;46042;49.444;6.862;2024-02-21T06:42:07;99210.31;;;5.11;100.00
60170;BME280;46042;49.444;6.862;2024-02-21T06:44:34;99210.19;;;5.15;100.00
60170;BME280;46042;49.444;6.862;2024-02-21T06:47:07;99211.59;;;5.25;100.00
60170;BME280;46042;49.444;6.862;2024-02-21T06:49:35;99213.28;;;5.26;100.00
60170;BME280;46042;49.444;6.862;2024-02-21T06:52:04;99214.78;;;5.33;100.00
60170;BME280;46042;49.444;6.862;2024-02-21T06:54:31;99211.41;;;5.30;100.00
60170;BME280;46042;49.444;6.862;2024-02-21T06:56:58;99215.75;;;5.31;100.00
60170;BME280;46042;49.444;6.862;2024-02-21T06:59:25;99219.94;;;5.35;100.00
60170;BME280;46042;49.444;6.862;2024-02-21T07:01:53;99220.78;;;5.35;100.00
60170;BME280;46042;49.444;6.862;2024-02-21T07:04:22;99214.78;;;5.33;100.00
60170;BME280;46042;49.444;6.862;2024-02-21T07:06:52;99215.56;;;5.35;100.00
60170;BME280;46042;49.444;6.862;2024-02-21T07:09:19;99220.75;;;5.37;100.00
60170;BME280;46042;49.444;6.862;2024-02-21T07:11:46;99209.94;;;5.46;100.00
60170;BME280;46042;49.444;6.862;2024-02-21T07:14:17;99206.09;;;5.33;100.00
60170;BME280;46042;49.444;6.862;2024-02-21T07:16:44;99208.47;;;5.39;100.00
60170;BME280;46042;49.444;6.862;2024-02-21T07:19:11;99209.88;;;5.49;100.00
60170;BME280;46042;49.444;6.862;2024-02-21T07:21:38;99206.34;;;5.50;100.00
60170;BME280;46042;49.444;6.862;2024-02-21T07:24:08;99202.22;;;5.43;100.00
60170;BME280;46042;49.444;6.862;2024-02-21T07:26:35;99202.81;;;5.51;100.00
60170;BME280;46042;49.444;6.862;2024-02-21T07:29:01;99205.25;;;5.56;100.00
60170;BME280;46042;49.444;6.862;2024-02-21T07:31:28;99191.47;;;5.52;100.00
60170;BME280;46042;49.444;6.862;2024-02-21T07:33:55;99188.69;;;5.57;100.00
60170;BME280;46042;49.444;6.862;2024-02-21T07:36:30;99181.00;;;5.52;100.00
60170;BME280;46042;49.444;6.862;2024-02-21T07:38:57;99179.97;;;5.57;100.00
60170;BME280;46042;49.444;6.862;2024-02-21T07:41:25;99186.63;;;5.65;100.00
60170;BME280;46042;49.444;6.862;2024-02-21T07:43:52;99180.66;;;5.62;100.00
60170;BME280;46042;49.444;6.862;2024-02-21T07:46:19;99171.63;;;5.70;100.00
60170;BME280;46042;49.444;6.862;2024-02-21T07:48:46;99182.66;;;5.79;100.00
60170;BME280;46042;49.444;6.862;2024-02-21T07:51:13;99183.63;;;5.76;100.00
60170;BME280;46042;49.444;6.862;2024-02-21T07:53:40;99180.66;;;5.86;100.00
60170;BME280;46042;49.444;6.862;2024-02-21T07:56:15;99184.81;;;5.91;100.00
60170;BME280;46042;49.444;6.862;2024-02-21T07:58:45;99184.81;;;5.91;100.00
60170;BME280;46042;49.444;6.862;2024-02-21T08:01:18;99192.47;;;5.96;100.00
60170;BME280;46042;49.444;6.862;2024-02-21T08:03:46;99187.59;;;5.87;100.00
60170;BME280;46042;49.444;6.862;2024-02-21T08:06:13;99184.56;;;5.97;100.00
60170;BME280;46042;49.444;6.862;2024-02-21T08:08:40;99191.38;;;6.03;100.00
60170;BME280;46042;49.444;6.862;2024-02-21T08:11:07;99186.81;;;6.08;100.00
60170;BME280;46042;49.444;6.862;2024-02-21T08:13:34;99190.03;;;6.15;100.00
60170;BME280;46042;49.444;6.862;2024-02-21T08:16:01;99185.53;;;6.19;100.00
60170;BME280;46042;49.444;6.862;2024-02-21T08:18:29;99193.25;;;6.22;100.00
60170;BME280;46042;49.444;6.862;2024-02-21T08:20:56;99186.31;;;6.21;100.00
60170;BME280;46042;49.444;6.862;2024-02-21T08:23:23;99175.47;;;6.30;100.00
60170;BME280;46042;49.444;6.862;2024-02-21T08:25:51;99170.84;;;6.37;100.00
60170;BME280;46042;49.444;6.862;2024-02-21T08:28:18;99173.59;;;6.34;100.00
60170;BME280;46042;49.444;6.862;2024-02-21T08:30:44;99175.91;;;6.42;100.00
60170;BME280;46042;49.444;6.862;2024-02-21T08:33:15;99168.84;;;6.44;100.00
60170;BME280;46042;49.444;6.862;2024-02-21T08:35:43;99165.88;;;6.53;100.00
60170;BME280;46042;49.444;6.862;2024-02-21T08:38:10;99171.41;;;6.45;100.00
60170;BME280;46042;49.444;6.862;2024-02-21T08:40:37;99158.03;;;6.53;100.00
60170;BME280;46042;49.444;6.862;2024-02-21T08:43:04;99153.44;;;6.58;100.00
60170;BME280;46042;49.444;6.862;2024-02-21T08:45:34;99162.53;;;6.70;100.00
60170;BME280;46042;49.444;6.862;2024-02-21T08:48:01;99148.41;;;6.74;100.00
60170;BME280;46042;49.444;6.862;2024-02-21T08:50:28;99136.19;;;6.75;100.00
60170;BME280;46042;49.444;6.862;2024-02-21T08:52:55;99128.47;;;6.72;100.00
60170;BME280;46042;49.444;6.862;2024-02-21T08:55:26;99128.47;;;6.72;100.00
60170;BME280;46042;49.444;6.862;2024-02-21T08:57:53;99126.63;;;6.74;100.00
60170;BME280;46042;49.444;6.862;2024-02-21T09:00:20;99123.53;;;6.85;100.00
60170;BME280;46042;49.444;6.862;2024-02-21T09:02:51;99121.69;;;6.87;100.00
60170;BME280;46042;49.444;6.862;2024-02-21T09:05:17;99114.63;;;6.89;100.00
60170;BME280;46042;49.444;6.862;2024-02-21T09:07:45;99121.19;;;6.99;100.00
60170;BME280;46042;49.444;6.862;2024-02-21T09:10:15;99116.78;;;7.00;100.00
60170;BME280;46042;49.444;6.862;2024-02-21T09:12:42;99108.41;;;6.91;100.00
60170;BME280;46042;49.444;6.862;2024-02-21T09:15:10;99103.50;;;6.83;100.00
60170;BME280;46042;49.444;6.862;2024-02-21T09:17:37;99100.41;;;6.94;100.00
60170;BME280;46042;49.444;6.862;2024-02-21T09:20:04;99103.28;;;7.09;100.00
60170;BME280;46042;49.444;6.862;2024-02-21T09:22:33;99098.78;;;6.92;100.00
60170;BME280;46042;49.444;6.862;2024-02-21T09:25:01;99098.00;;;6.90;100.00
60170;BME280;46042;49.444;6.862;2024-02-21T09:27:33;99092.09;;;7.05;100.00
60170;BME280;46042;49.444;6.862;2024-02-21T09:30:00;99079.28;;;7.18;100.00
60170;BME280;46042;49.444;6.862;2024-02-21T09:32:27;99077.47;;;7.20;100.00
60170;BME280;46042;49.444;6.862;2024-02-21T09:34:54;99064.28;;;7.22;100.00
60170;BME280;46042;49.444;6.862;2024-02-21T09:37:26;99060.09;;;7.18;100.00
60170;BME280;46042;49.444;6.862;2024-02-21T09:39:53;99050.69;;;7.33;100.00
60170;BME280;46042;49.444;6.862;2024-02-21T09:45:00;99040.88;;;7.38;100.00
60170;BME280;46042;49.444;6.862;2024-02-21T09:47:48;99043.13;;;7.46;100.00
60170;BME280;46042;49.444;6.862;2024-02-21T09:50:17;99038.94;;;7.42;100.00
60170;BME280;46042;49.444;6.862;2024-02-21T09:52:45;99037.13;;;7.61;100.00
60170;BME280;46042;49.444;6.862;2024-02-21T09:55:13;99031.72;;;7.83;100.00
60170;BME280;46042;49.444;6.862;2024-02-21T09:57:41;99037.84;;;8.02;100.00
60170;BME280;46042;49.444;6.862;2024-02-21T10:00:11;99034.00;;;8.09;100.00
60170;BME280;46042;49.444;6.862;2024-02-21T10:02:39;99026.88;;;7.93;100.00
60170;BME280;46042;49.444;6.862;2024-02-21T10:05:06;99025.44;;;8.23;100.00
60170;BME280;46042;49.444;6.862;2024-02-21T10:07:35;99026.28;;;8.23;100.00
60170;BME280;46042;49.444;6.862;2024-02-21T10:10:02;99018.63;;;8.19;100.00
60170;BME280;46042;49.444;6.862;2024-02-21T10:12:29;99005.28;;;8.23;100.00
60170;BME280;46042;49.444;6.862;2024-02-21T10:15:03;99012.94;;;8.28;100.00
60170;BME280;46042;49.444;6.862;2024-02-21T10:17:31;99008.47;;;8.13;100.00
60170;BME280;46042;49.444;6.862;2024-02-21T10:20:11;99008.06;;;8.20;100.00
60170;BME280;46042;49.444;6.862;2024-02-21T10:22:38;99007.13;;;8.39;100.00
60170;BME280;46042;49.444;6.862;2024-02-21T10:25:10;99001.28;;;8.34;100.00
60170;BME280;46042;49.444;6.862;2024-02-21T10:27:40;98996.19;;;8.31;97.83
60170;BME280;46042;49.444;6.862;2024-02-21T10:30:13;99004.69;;;8.18;97.46
60170;BME280;46042;49.444;6.862;2024-02-21T10:32:50;99001.50;;;8.29;100.00
60170;BME280;46042;49.444;6.862;2024-02-21T10:35:27;99007.19;;;7.85;98.17
60170;BME280;46042;49.444;6.862;2024-02-21T10:37:58;98998.63;;;7.81;99.11
60170;BME280;46042;49.444;6.862;2024-02-21T10:40:29;98995.72;;;7.87;99.06
60170;BME280;46042;49.444;6.862;2024-02-21T10:42:59;98998.19;;;7.90;99.83
60170;BME280;46042;49.444;6.862;2024-02-21T10:45:36;98999.09;;;7.89;98.84
60170;BME280;46042;49.444;6.862;2024-02-21T10:48:09;99000.41;;;7.98;98.36
60170;BME280;46042;49.444;6.862;2024-02-21T10:50:56;98988.06;;;8.00;99.22
60170;BME280;46042;49.444;6.862;2024-02-21T10:53:44;98995.88;;;8.19;100.00
60170;BME280;46042;49.444;6.862;2024-02-21T10:59:00;98986.31;;;8.18;96.43
60170;BME280;46042;49.444;6.862;2024-02-21T11:01:29;98982.59;;;8.22;98.01
60170;BME280;46042;49.444;6.862;2024-02-21T11:04:03;98980.19;;;8.35;96.62
60170;BME280;46042;49.444;6.862;2024-02-21T11:06:30;98979.53;;;8.14;95.15
60170;BME280;46042;49.444;6.862;2024-02-21T11:09:09;98965.31;;;8.18;95.58
60170;BME280;46042;49.444;6.862;2024-02-21T11:11:55;98955.78;;;8.33;96.94
60170;BME280;46042;49.444;6.862;2024-02-21T11:14:28;98956.13;;;8.27;95.99
60170;BME280;46042;49.444;6.862;2024-02-21T11:16:59;98951.56;;;8.31;95.98
60170;BME280;46042;49.444;6.862;2024-02-21T11:19:28;98952.91;;;8.22;95.56
60170;BME280;46042;49.444;6.862;2024-02-21T11:21:56;98949.63;;;8.52;97.10
60170;BME280;46042;49.444;6.862;2024-02-21T11:24:30;98942.41;;;8.22;95.08
60170;BME280;46042;49.444;6.862;2024-02-21T11:27:19;98932.34;;;8.30;93.21
60170;BME280;46042;49.444;6.862;2024-02-21T11:29:49;98928.91;;;8.46;94.42
60170;BME280;46042;49.444;6.862;2024-02-21T11:32:20;98912.28;;;8.63;97.63
60170;BME280;46042;49.444;6.862;2024-02-21T11:34:58;98914.59;;;8.69;95.09
60170;BME280;46042;49.444;6.862;2024-02-21T11:37:35;98902.97;;;8.57;95.41
60170;BME280;46042;49.444;6.862;2024-02-21T11:40:07;98904.16;;;8.51;94.43
60170;BME280;46042;49.444;6.862;2024-02-21T11:42:38;98886.19;;;8.60;92.53
60170;BME280;46042;49.444;6.862;2024-02-21T11:45:06;98881.88;;;8.59;91.03
60170;BME280;46042;49.444;6.862;2024-02-21T11:47:33;98869.28;;;8.48;88.96
60170;BME280;46042;49.444;6.862;2024-02-21T11:50:00;98869.94;;;8.35;90.41
60170;BME280;46042;49.444;6.862;2024-02-21T11:52:28;98868.84;;;8.73;93.96
60170;BME280;46042;49.444;6.862;2024-02-21T11:54:57;98854.50;;;8.63;90.57
60170;BME280;46042;49.444;6.862;2024-02-21T11:57:32;98849.94;;;8.50;88.10
60170;BME280;46042;49.444;6.862;2024-02-21T11:59:59;98828.53;;;8.58;87.58
60170;BME280;46042;49.444;6.862;2024-02-21T12:02:29;98827.59;;;8.59;88.73
60170;BME280;46042;49.444;6.862;2024-02-21T12:04:56;98823.72;;;8.49;88.96
60170;BME280;46042;49.444;6.862;2024-02-21T12:07:24;98812.00;;;8.72;91.76
60170;BME280;46042;49.444;6.862;2024-02-21T12:09:51;98807.69;;;8.71;86.65
60170;BME280;46042;49.444;6.862;2024-02-21T12:12:20;98801.56;;;8.71;86.53
60170;BME280;46042;49.444;6.862;2024-02-21T12:14:54;98796.81;;;8.77;88.37
60170;BME280;46042;49.444;6.862;2024-02-21T12:17:24;98794.44;;;8.73;87.38
60170;BME280;46042;49.444;6.862;2024-02-21T12:19:54;98779.63;;;8.88;88.41
60170;BME280;46042;49.444;6.862;2024-02-21T12:22:21;98769.50;;;8.96;87.74
60170;BME280;46042;49.444;6.862;2024-02-21T12:24:48;98762.06;;;8.88;88.83
60170;BME280;46042;49.444;6.862;2024-02-21T12:27:15;98758.03;;;8.82;86.14
60170;BME280;46042;49.444;6.862;2024-02-21T12:29:42;98755.47;;;8.81;90.27
60170;BME280;46042;49.444;6.862;2024-02-21T12:32:09;98749.34;;;8.96;89.20
60170;BME280;46042;49.444;6.862;2024-02-21T12:34:36;98751.72;;;8.85;85.34
60170;BME280;46042;49.444;6.862;2024-02-21T12:37:19;98757.34;;;8.63;85.40
60170;BME280;46042;49.444;6.862;2024-02-21T12:39:47;98758.34;;;8.76;85.22
60170;BME280;46042;49.444;6.862;2024-02-21T12:42:15;98730.63;;;8.87;89.70
60170;BME280;46042;49.444;6.862;2024-02-21T12:44:42;98723.16;;;8.95;87.85
60170;BME280;46042;49.444;6.862;2024-02-21T12:47:09;98730.91;;;8.82;84.49
60170;BME280;46042;49.444;6.862;2024-02-21T12:49:40;98712.63;;;8.95;88.47
60170;BME280;46042;49.444;6.862;2024-02-21T12:52:11;98718.25;;;8.89;85.09
60170;BME280;46042;49.444;6.862;2024-02-21T12:54:40;98729.44;;;8.92;83.33
60170;BME280;46042;49.444;6.862;2024-02-21T12:57:10;98728.00;;;8.87;87.21
60170;BME280;46042;49.444;6.862;2024-02-21T12:59:37;98722.31;;;8.94;86.37
60170;BME280;46042;49.444;6.862;2024-02-21T13:02:03;98710.41;;;8.73;83.77
60170;BME280;46042;49.444;6.862;2024-02-21T13:04:30;98697.31;;;8.87;86.66
60170;BME280;46042;49.444;6.862;2024-02-21T13:06:57;98706.28;;;8.99;86.51
60170;BME280;46042;49.444;6.862;2024-02-21T13:09:24;98694.44;;;8.92;84.02
60170;BME280;46042;49.444;6.862;2024-02-21T13:11:51;98697.53;;;8.99;86.15
60170;BME280;46042;49.444;6.862;2024-02-21T13:14:18;98673.81;;;9.00;83.89
60170;BME280;46042;49.444;6.862;2024-02-21T13:16:45;98662.00;;;9.07;87.38
60170;BME280;46042;49.444;6.862;2024-02-21T13:19:12;98659.28;;;9.23;86.80
60170;BME280;46042;49.444;6.862;2024-02-21T13:21:44;98654.03;;;9.23;87.59